createdAt,value
2023-04-26T00:02:18.618Z,8.78
2023-04-26T00:04:47.938Z,8.77
2023-04-26T00:07:15.928Z,8.73
2023-04-26T00:09:44.718Z,8.68
2023-04-26T00:12:13.056Z,8.73
2023-04-26T00:14:40.785Z,8.68
2023-04-26T00:17:08.551Z,8.73
2023-04-26T00:19:38.614Z,8.69
2023-04-26T00:22:06.650Z,8.71
2023-04-26T00:24:34.516Z,8.70
2023-04-26T00:27:05.294Z,8.60
2023-04-26T00:29:33.001Z,8.53
2023-04-26T00:32:00.960Z,8.55
2023-04-26T00:34:33.326Z,8.55
2023-04-26T00:37:02.487Z,8.55
2023-04-26T00:39:30.508Z,8.49
2023-04-26T00:41:58.240Z,8.45
2023-04-26T00:44:26.013Z,8.46
2023-04-26T00:46:54.697Z,8.40
2023-04-26T00:49:25.139Z,8.43
2023-04-26T00:51:53.988Z,8.41
2023-04-26T00:54:23.166Z,8.37
2023-04-26T00:56:53.320Z,8.27
2023-04-26T00:59:21.712Z,8.34
2023-04-26T01:01:49.569Z,8.33
2023-04-26T01:04:17.621Z,8.38
2023-04-26T01:06:46.456Z,8.34
2023-04-26T01:09:15.875Z,8.35
2023-04-26T01:11:46.266Z,8.31
2023-04-26T01:14:15.640Z,8.31
2023-04-26T01:16:47.567Z,8.30
2023-04-26T01:19:16.553Z,8.15
2023-04-26T01:21:46.485Z,8.28
2023-04-26T01:24:16.638Z,8.28
2023-04-26T01:26:47.065Z,8.26
2023-04-26T01:29:16.998Z,8.22
2023-04-26T01:31:45.554Z,8.24
2023-04-26T01:34:13.426Z,8.23
2023-04-26T01:36:41.632Z,8.16
2023-04-26T01:39:09.435Z,8.12
2023-04-26T01:41:38.574Z,8.12
2023-04-26T01:44:06.711Z,8.03
2023-04-26T01:46:34.556Z,8.02
2023-04-26T01:49:02.388Z,8.02
2023-04-26T01:51:31.328Z,8.06
2023-04-26T01:53:59.945Z,8.12
2023-04-26T01:56:27.749Z,8.06
2023-04-26T01:58:57.401Z,8.04
2023-04-26T02:01:25.515Z,8.01
2023-04-26T02:03:53.299Z,7.99
2023-04-26T02:06:21.330Z,7.99
2023-04-26T02:08:49.370Z,7.80
2023-04-26T02:11:17.324Z,7.75
2023-04-26T02:13:45.040Z,7.85
2023-04-26T02:16:16.118Z,7.84
2023-04-26T02:18:44.386Z,7.81
2023-04-26T02:21:13.318Z,7.88
2023-04-26T02:23:41.094Z,7.91
2023-04-26T02:26:11.646Z,7.94
2023-04-26T02:28:39.740Z,7.74
2023-04-26T02:31:07.720Z,7.85
2023-04-26T02:33:36.940Z,7.73
2023-04-26T02:36:05.995Z,7.53
2023-04-26T02:38:35.063Z,7.55
2023-04-26T02:41:05.361Z,7.49
2023-04-26T02:43:34.412Z,7.46
2023-04-26T02:46:02.417Z,7.41
2023-04-26T02:48:31.822Z,7.48
2023-04-26T02:51:01.013Z,7.44
2023-04-26T02:53:28.857Z,7.64
2023-04-26T02:55:56.784Z,7.66
2023-04-26T02:58:24.587Z,7.68
2023-04-26T03:00:54.564Z,7.66
2023-04-26T03:03:23.117Z,7.60
2023-04-26T03:05:51.572Z,7.57
2023-04-26T03:08:20.886Z,7.51
2023-04-26T03:10:48.846Z,7.50
2023-04-26T03:13:16.554Z,7.52
2023-04-26T03:15:45.863Z,7.51
2023-04-26T03:18:13.689Z,7.47
2023-04-26T03:20:41.958Z,7.50
2023-04-26T03:23:10.249Z,7.42
2023-04-26T03:25:39.601Z,7.34
2023-04-26T03:28:07.381Z,7.31
2023-04-26T03:30:35.463Z,7.34
2023-04-26T03:33:03.614Z,7.33
2023-04-26T03:35:31.618Z,7.18
2023-04-26T03:38:00.852Z,7.01
2023-04-26T03:40:28.576Z,6.96
2023-04-26T03:42:58.036Z,6.93
2023-04-26T03:45:26.806Z,6.83
2023-04-26T03:47:54.635Z,6.76
2023-04-26T03:50:22.608Z,6.82
2023-04-26T03:52:50.919Z,6.97
2023-04-26T03:55:18.757Z,6.93
2023-04-26T03:57:47.419Z,7.06
2023-04-26T04:00:17.500Z,6.96
2023-04-26T04:02:45.651Z,6.86
2023-04-26T04:05:22.079Z,6.79
2023-04-26T04:07:49.959Z,6.77
2023-04-26T04:10:17.764Z,6.88
2023-04-26T04:12:46.597Z,6.88
2023-04-26T04:15:14.981Z,6.78
2023-04-26T04:17:48.925Z,6.77
2023-04-26T04:20:16.851Z,6.83
2023-04-26T04:22:44.735Z,6.91
2023-04-26T04:25:13.865Z,6.92
2023-04-26T04:27:43.809Z,6.87
2023-04-26T04:30:12.883Z,6.84
2023-04-26T04:32:44.427Z,6.93
2023-04-26T04:35:14.462Z,6.94
2023-04-26T04:37:43.861Z,6.95
2023-04-26T04:40:13.342Z,6.76
2023-04-26T04:42:44.546Z,6.70
2023-04-26T04:45:12.667Z,6.64
2023-04-26T04:47:40.937Z,6.84
2023-04-26T04:50:09.849Z,6.99
2023-04-26T04:52:39.485Z,7.01
2023-04-26T04:55:07.922Z,7.07
2023-04-26T04:57:41.413Z,7.12
2023-04-26T05:00:12.854Z,7.02
2023-04-26T05:02:47.785Z,7.06
2023-04-26T05:05:17.012Z,7.15
2023-04-26T05:07:46.442Z,7.15
2023-04-26T05:10:15.929Z,7.20
2023-04-26T05:12:43.711Z,7.20
2023-04-26T05:15:11.924Z,7.30
2023-04-26T05:17:40.742Z,7.23
2023-04-26T05:20:17.415Z,7.23
2023-04-26T05:22:47.718Z,7.17
2023-04-26T05:25:17.132Z,7.26
2023-04-26T05:27:47.440Z,7.31
2023-04-26T05:30:32.335Z,7.38
2023-04-26T05:33:18.593Z,7.43
2023-04-26T05:36:21.224Z,7.33
2023-04-26T05:38:49.189Z,7.39
2023-04-26T05:41:17.049Z,7.54
2023-04-26T05:43:44.992Z,7.56
2023-04-26T05:46:13.067Z,7.62
2023-04-26T05:48:41.698Z,7.69
2023-04-26T05:51:09.466Z,7.72
2023-04-26T05:53:38.779Z,7.70
2023-04-26T05:56:07.736Z,7.75
2023-04-26T05:58:35.986Z,7.87
2023-04-26T06:01:04.613Z,7.86
2023-04-26T06:03:32.816Z,7.89
2023-04-26T06:06:01.426Z,7.95
2023-04-26T06:08:29.396Z,7.95
2023-04-26T06:10:58.497Z,7.94
2023-04-26T06:13:28.328Z,7.95
2023-04-26T06:15:56.361Z,7.94
2023-04-26T06:18:24.088Z,8.00
2023-04-26T06:20:52.365Z,8.06
2023-04-26T06:23:20.412Z,8.04
2023-04-26T06:25:48.262Z,8.10
2023-04-26T06:28:17.668Z,8.17
2023-04-26T06:30:45.913Z,8.21
2023-04-26T06:33:13.780Z,8.28
2023-04-26T06:35:41.921Z,8.30
2023-04-26T06:38:12.627Z,8.36
2023-04-26T06:40:40.363Z,8.37
2023-04-26T06:43:09.150Z,8.37
2023-04-26T06:45:38.187Z,8.44
2023-04-26T06:48:07.275Z,8.51
2023-04-26T06:50:38.989Z,8.46
2023-04-26T06:53:07.049Z,8.38
2023-04-26T06:55:35.153Z,8.60
2023-04-26T06:58:02.954Z,8.65
2023-04-26T07:00:30.900Z,8.66
2023-04-26T07:03:00.094Z,8.73
2023-04-26T07:05:27.956Z,8.81
2023-04-26T07:07:55.905Z,8.88
2023-04-26T07:10:23.915Z,8.69
2023-04-26T07:12:51.717Z,8.95
2023-04-26T07:15:19.476Z,8.99
2023-04-26T07:17:47.225Z,8.94
2023-04-26T07:20:19.822Z,9.03
2023-04-26T07:22:47.652Z,8.97
2023-04-26T07:25:15.901Z,9.00
2023-04-26T07:27:43.774Z,9.04
2023-04-26T07:30:12.193Z,9.13
2023-04-26T07:32:39.943Z,9.21
2023-04-26T07:35:10.474Z,9.25
2023-04-26T07:37:39.597Z,9.28
2023-04-26T07:40:10.385Z,9.25
2023-04-26T07:42:38.197Z,9.34
2023-04-26T07:45:06.872Z,9.36
2023-04-26T07:47:34.640Z,9.30
2023-04-26T07:50:02.492Z,9.42
2023-04-26T07:52:30.302Z,9.62
2023-04-26T07:54:59.408Z,9.58
2023-04-26T07:57:27.101Z,9.65
2023-04-26T07:59:54.864Z,9.56
2023-04-26T08:02:32.937Z,9.69
2023-04-26T08:05:10.761Z,9.81
2023-04-26T08:07:38.645Z,9.91
2023-04-26T08:10:08.902Z,9.86
2023-04-26T08:12:38.093Z,9.78
2023-04-26T08:15:06.957Z,9.79
2023-04-26T08:17:34.777Z,9.86
2023-04-26T08:20:04.929Z,9.99
2023-04-26T08:22:32.700Z,10.06
2023-04-26T08:25:00.416Z,10.06
2023-04-26T08:27:29.516Z,9.87
2023-04-26T08:29:57.202Z,10.10
2023-04-26T08:32:24.966Z,10.02
2023-04-26T08:34:52.911Z,10.15
2023-04-26T08:37:20.852Z,10.19
2023-04-26T08:39:48.623Z,10.13
2023-04-26T08:42:18.586Z,10.23
2023-04-26T08:44:47.709Z,10.31
2023-04-26T08:47:19.034Z,10.37
2023-04-26T08:49:50.267Z,10.38
2023-04-26T08:52:22.872Z,10.40
2023-04-26T08:54:52.132Z,10.51
2023-04-26T08:57:21.066Z,10.42
2023-04-26T08:59:51.281Z,10.52
2023-04-26T09:02:21.368Z,10.55
2023-04-26T09:04:50.027Z,10.62
2023-04-26T09:07:22.373Z,10.62
2023-04-26T09:09:51.508Z,10.70
2023-04-26T09:12:21.229Z,10.73
2023-04-26T09:14:50.487Z,10.78
2023-04-26T09:17:28.593Z,10.93
2023-04-26T09:19:56.672Z,10.89
2023-04-26T09:22:32.301Z,11.04
2023-04-26T09:25:00.938Z,11.03
2023-04-26T09:27:34.725Z,11.07
2023-04-26T09:30:08.109Z,11.08
2023-04-26T09:32:46.692Z,11.00
2023-04-26T09:35:31.559Z,11.04
2023-04-26T09:38:08.605Z,11.09
2023-04-26T09:40:41.030Z,11.23
2023-04-26T09:43:09.784Z,11.27
2023-04-26T09:45:47.431Z,11.21
2023-04-26T09:48:17.573Z,11.07
2023-04-26T09:50:46.848Z,11.09
2023-04-26T09:53:27.532Z,11.14
2023-04-26T09:55:55.505Z,11.18
2023-04-26T09:58:23.966Z,11.25
2023-04-26T10:00:54.456Z,11.27
2023-04-26T10:03:24.214Z,11.28
2023-04-26T10:05:52.604Z,11.23
2023-04-26T10:08:20.453Z,11.10
2023-04-26T10:10:49.005Z,11.25
2023-04-26T10:13:17.364Z,11.28
2023-04-26T10:15:45.200Z,11.55
2023-04-26T10:18:14.328Z,11.57
2023-04-26T10:20:45.704Z,11.58
2023-04-26T10:23:26.520Z,11.63
2023-04-26T10:25:55.788Z,11.49
2023-04-26T10:28:57.181Z,11.56
2023-04-26T10:32:06.388Z,11.46
2023-04-26T10:34:37.046Z,11.15
2023-04-26T10:37:09.376Z,11.24
2023-04-26T10:39:37.455Z,12.08
2023-04-26T10:42:26.564Z,12.47
2023-04-26T10:44:55.996Z,12.77
2023-04-26T10:47:27.102Z,12.81
2023-04-26T10:50:05.529Z,12.77
2023-04-26T10:52:34.488Z,12.79
2023-04-26T10:55:02.658Z,13.06
2023-04-26T10:57:50.883Z,13.55
2023-04-26T11:00:31.934Z,13.70
2023-04-26T11:03:05.009Z,13.82
2023-04-26T11:05:56.365Z,13.87
2023-04-26T11:08:28.550Z,13.98
2023-04-26T11:11:11.801Z,14.02
2023-04-26T11:13:41.345Z,14.36
2023-04-26T11:16:11.371Z,14.55
2023-04-26T11:18:40.800Z,14.73
2023-04-26T11:21:10.828Z,14.59
2023-04-26T11:23:38.691Z,14.26
2023-04-26T11:26:08.342Z,14.13
2023-04-26T11:28:37.801Z,14.09
2023-04-26T11:31:07.391Z,13.75
2023-04-26T11:33:35.206Z,13.78
2023-04-26T11:36:03.106Z,13.81
2023-04-26T11:38:32.203Z,13.55
2023-04-26T11:41:01.989Z,13.44
2023-04-26T11:43:36.871Z,13.53
2023-04-26T11:46:05.805Z,13.53
2023-04-26T11:48:35.690Z,13.46
2023-04-26T11:51:05.576Z,13.61
2023-04-26T11:53:38.733Z,13.45
2023-04-26T11:56:15.293Z,13.23
2023-04-26T11:58:45.734Z,13.16
2023-04-26T12:01:13.580Z,13.17
2023-04-26T12:03:41.541Z,13.15
2023-04-26T12:06:09.372Z,13.09
2023-04-26T12:08:38.601Z,13.03
2023-04-26T12:11:06.363Z,13.08
2023-04-26T12:13:34.045Z,13.10
2023-04-26T12:18:37.674Z,13.26
2023-04-26T12:21:06.449Z,13.27
2023-04-26T12:23:41.874Z,13.27
2023-04-26T12:26:12.251Z,13.29
2023-04-26T12:28:40.087Z,13.23
2023-04-26T12:31:08.447Z,13.17
2023-04-26T12:33:36.737Z,13.19
2023-04-26T12:36:09.239Z,13.38
2023-04-26T12:38:37.288Z,13.71
2023-04-26T12:41:07.225Z,14.10
2023-04-26T12:43:35.023Z,14.54
2023-04-26T12:46:02.863Z,14.85
2023-04-26T12:48:30.749Z,14.94
2023-04-26T12:50:58.592Z,14.96
2023-04-26T12:53:26.461Z,14.59
2023-04-26T12:55:54.387Z,14.39
2023-04-26T12:58:23.448Z,14.59
2023-04-26T13:00:51.685Z,14.41
2023-04-26T13:03:19.522Z,14.35
2023-04-26T13:05:47.380Z,14.86
2023-04-26T13:08:15.440Z,15.55
2023-04-26T13:10:43.552Z,16.26
2023-04-26T13:13:11.252Z,16.90
2023-04-26T13:15:41.084Z,17.63
2023-04-26T13:18:08.837Z,18.10
2023-04-26T13:20:36.985Z,17.50
2023-04-26T13:23:04.911Z,17.93
2023-04-26T13:25:32.685Z,18.55
2023-04-26T13:28:00.511Z,18.98
2023-04-26T13:30:28.317Z,19.04
2023-04-26T13:32:59.960Z,18.96
2023-04-26T13:35:28.298Z,19.00
2023-04-26T13:37:56.348Z,19.08
2023-04-26T13:40:24.108Z,19.04
2023-04-26T13:42:52.039Z,18.98
2023-04-26T13:45:20.224Z,18.98
2023-04-26T13:47:48.017Z,18.89
2023-04-26T13:50:17.629Z,18.92
2023-04-26T13:52:45.539Z,18.62
2023-04-26T13:55:14.361Z,18.71
2023-04-26T13:57:42.441Z,18.56
2023-04-26T14:00:11.889Z,18.18
2023-04-26T14:02:42.061Z,17.63
2023-04-26T14:05:10.553Z,17.17
2023-04-26T14:07:40.293Z,16.92
2023-04-26T14:10:09.084Z,16.51
2023-04-26T14:12:37.301Z,16.32
2023-04-26T14:15:06.595Z,16.18
2023-04-26T14:17:34.598Z,15.76
2023-04-26T14:20:02.501Z,15.74
2023-04-26T14:22:30.578Z,15.71
2023-04-26T14:24:59.751Z,15.67
2023-04-26T14:27:27.671Z,15.82
2023-04-26T14:29:55.851Z,15.85
2023-04-26T14:32:24.505Z,15.57
2023-04-26T14:34:52.240Z,15.65
2023-04-26T14:37:22.811Z,15.85
2023-04-26T14:39:51.667Z,15.98
2023-04-26T14:42:21.118Z,16.03
2023-04-26T14:44:48.863Z,16.04
2023-04-26T14:47:16.734Z,16.37
2023-04-26T14:49:44.607Z,16.35
2023-04-26T14:52:12.369Z,16.43
2023-04-26T14:54:40.916Z,16.60
2023-04-26T14:57:09.098Z,16.68
2023-04-26T14:59:38.446Z,16.61
2023-04-26T15:02:06.292Z,16.57
2023-04-26T15:04:34.344Z,16.38
2023-04-26T15:07:02.691Z,16.16
2023-04-26T15:09:30.927Z,16.17
2023-04-26T15:11:58.679Z,16.19
2023-04-26T15:14:26.923Z,16.15
2023-04-26T15:16:56.184Z,16.13
2023-04-26T15:19:24.635Z,16.17
2023-04-26T15:21:52.428Z,16.09
2023-04-26T15:24:20.453Z,16.16
2023-04-26T15:26:48.224Z,16.16
2023-04-26T15:29:18.851Z,16.08
2023-04-26T15:31:46.709Z,16.02
2023-04-26T15:34:16.520Z,15.89
2023-04-26T15:36:44.238Z,15.83
2023-04-26T15:39:12.115Z,15.81
2023-04-26T15:41:39.883Z,15.71
2023-04-26T15:44:07.694Z,15.51
2023-04-26T15:46:37.993Z,15.58
2023-04-26T15:49:06.026Z,15.61
2023-04-26T15:51:35.296Z,15.63
2023-04-26T15:54:03.091Z,15.65
2023-04-26T15:56:30.837Z,15.73
2023-04-26T15:58:58.546Z,15.67
2023-04-26T16:01:26.501Z,15.83
2023-04-26T16:03:54.419Z,15.98
2023-04-26T16:06:22.464Z,16.11
2023-04-26T16:08:51.541Z,16.16
2023-04-26T16:11:19.282Z,16.05
2023-04-26T16:13:51.711Z,16.08
2023-04-26T16:16:19.832Z,16.22
2023-04-26T16:18:47.777Z,16.29
2023-04-26T16:21:16.148Z,16.25
2023-04-26T16:23:43.786Z,16.26
2023-04-26T16:26:13.010Z,16.37
2023-04-26T16:28:40.799Z,16.42
2023-04-26T16:31:08.564Z,16.33
2023-04-26T16:33:36.330Z,16.33
2023-04-26T16:36:04.420Z,16.10
2023-04-26T16:38:32.155Z,15.90
2023-04-26T16:41:01.690Z,15.74
2023-04-26T16:43:32.628Z,15.68
2023-04-26T16:46:02.145Z,15.57
2023-04-26T16:48:31.754Z,15.60
2023-04-26T16:50:59.823Z,15.84
2023-04-26T16:53:27.564Z,15.89
2023-04-26T16:55:55.535Z,15.96
2023-04-26T16:58:24.024Z,15.99
2023-04-26T17:00:53.602Z,16.01
2023-04-26T17:03:22.010Z,15.76
2023-04-26T17:05:50.164Z,15.56
2023-04-26T17:08:19.248Z,15.36
2023-04-26T17:10:47.849Z,15.08
2023-04-26T17:13:15.947Z,14.92
2023-04-26T17:15:44.217Z,14.66
2023-04-26T17:18:13.440Z,14.63
2023-04-26T17:20:41.906Z,14.56
2023-04-26T17:23:09.961Z,14.49
2023-04-26T17:25:37.707Z,14.54
2023-04-26T17:28:05.572Z,14.53
2023-04-26T17:30:33.392Z,14.54
2023-04-26T17:33:01.296Z,14.45
2023-04-26T17:35:30.777Z,14.32
2023-04-26T17:37:58.599Z,14.18
2023-04-26T17:40:26.520Z,14.11
2023-04-26T17:42:54.309Z,14.00
2023-04-26T17:45:22.236Z,13.93
2023-04-26T17:47:50.025Z,13.86
2023-04-26T17:50:20.882Z,13.83
2023-04-26T17:52:50.174Z,13.63
2023-04-26T17:55:18.209Z,13.68
2023-04-26T17:57:46.681Z,13.66
2023-04-26T18:00:15.707Z,13.63
2023-04-26T18:02:43.903Z,13.61
2023-04-26T18:05:13.202Z,13.56
2023-04-26T18:07:40.872Z,13.49
2023-04-26T18:10:10.927Z,13.46
2023-04-26T18:12:38.783Z,13.42
2023-04-26T18:15:07.815Z,13.40
2023-04-26T18:17:36.248Z,13.34
2023-04-26T18:20:04.717Z,13.22
2023-04-26T18:22:32.521Z,13.28
2023-04-26T18:25:00.393Z,13.22
2023-04-26T18:27:29.562Z,13.21
2023-04-26T18:29:57.283Z,13.19
2023-04-26T18:32:25.174Z,13.17
2023-04-26T18:34:53.013Z,13.13
2023-04-26T18:37:20.844Z,13.12
2023-04-26T18:39:49.341Z,13.04
2023-04-26T18:42:17.210Z,13.03
2023-04-26T18:44:46.349Z,13.02
2023-04-26T18:47:17.367Z,13.03
2023-04-26T18:49:45.198Z,13.00
2023-04-26T18:52:13.005Z,12.95
2023-04-26T18:54:44.164Z,12.92
2023-04-26T18:57:12.047Z,12.93
2023-04-26T18:59:39.850Z,12.87
2023-04-26T19:02:09.053Z,12.88
2023-04-26T19:04:37.069Z,12.82
2023-04-26T19:07:04.967Z,12.83
2023-04-26T19:09:42.823Z,12.82
2023-04-26T19:12:18.645Z,12.78
2023-04-26T19:14:46.429Z,12.78
2023-04-26T19:17:15.562Z,12.73
2023-04-26T19:19:43.336Z,12.74
2023-04-26T19:22:11.139Z,12.71
2023-04-26T19:24:38.859Z,12.67
2023-04-26T19:27:06.614Z,12.65
2023-04-26T19:29:34.405Z,12.66
2023-04-26T19:32:04.501Z,12.65
2023-04-26T19:34:34.854Z,12.63
2023-04-26T19:37:03.497Z,12.62
2023-04-26T19:39:31.320Z,12.60
2023-04-26T19:42:01.291Z,12.59
2023-04-26T19:44:29.052Z,12.58
2023-04-26T19:46:56.909Z,12.58
2023-04-26T19:49:25.754Z,12.55
2023-04-26T19:51:55.849Z,12.50
2023-04-26T19:54:24.541Z,12.52
2023-04-26T19:56:52.273Z,12.50
2023-04-26T19:59:20.622Z,12.26
2023-04-26T20:01:48.371Z,12.46
2023-04-26T20:04:16.460Z,12.45
2023-04-26T20:06:44.485Z,12.29
2023-04-26T20:09:13.710Z,12.35
2023-04-26T20:11:41.484Z,12.41
2023-04-26T20:14:09.231Z,12.21
2023-04-26T20:16:37.044Z,12.34
2023-04-26T20:19:05.110Z,12.28
2023-04-26T20:21:33.217Z,12.27
2023-04-26T20:24:00.967Z,12.30
2023-04-26T20:26:30.133Z,12.31
2023-04-26T20:28:57.912Z,12.27
2023-04-26T20:31:25.808Z,12.32
2023-04-26T20:33:53.558Z,12.30
2023-04-26T20:36:21.394Z,12.31
2023-04-26T20:38:49.130Z,12.26
2023-04-26T20:41:16.903Z,12.25
2023-04-26T20:43:46.083Z,12.23
2023-04-26T20:46:13.993Z,12.23
2023-04-26T20:48:42.009Z,12.21
2023-04-26T20:51:09.696Z,12.20
2023-04-26T20:53:37.425Z,12.19
2023-04-26T20:56:05.605Z,12.17
2023-04-26T20:58:33.481Z,12.13
2023-04-26T21:01:04.249Z,12.10
2023-04-26T21:03:34.505Z,12.07
2023-04-26T21:06:02.622Z,12.08
2023-04-26T21:08:30.435Z,12.04
2023-04-26T21:10:58.157Z,12.04
2023-04-26T21:13:26.026Z,12.01
2023-04-26T21:15:53.819Z,11.90
2023-04-26T21:18:22.954Z,11.96
2023-04-26T21:20:50.732Z,11.95
2023-04-26T21:23:18.513Z,11.88
2023-04-26T21:25:47.859Z,11.89
2023-04-26T21:28:15.777Z,11.85
2023-04-26T21:30:43.515Z,11.82
2023-04-26T21:33:12.414Z,11.80
2023-04-26T21:35:41.599Z,11.81
2023-04-26T21:38:09.430Z,11.81
2023-04-26T21:40:37.145Z,11.79
2023-04-26T21:43:05.704Z,11.76
2023-04-26T21:45:33.769Z,11.67
2023-04-26T21:48:01.571Z,11.72
2023-04-26T21:50:29.315Z,11.74
2023-04-26T21:52:58.516Z,11.71
2023-04-26T21:55:26.831Z,11.71
2023-04-26T21:57:54.651Z,11.70
2023-04-26T22:00:22.469Z,11.70
2023-04-26T22:02:51.431Z,11.69
2023-04-26T22:05:19.329Z,11.63
2023-04-26T22:07:47.172Z,11.62
2023-04-26T22:10:16.461Z,11.61
2023-04-26T22:12:44.278Z,11.61
2023-04-26T22:15:12.375Z,11.35
2023-04-26T22:17:40.143Z,11.51
2023-04-26T22:20:09.087Z,11.50
2023-04-26T22:22:36.910Z,11.48
2023-04-26T22:25:05.079Z,11.49
2023-04-26T22:27:34.279Z,11.48
2023-04-26T22:30:12.446Z,11.48
2023-04-26T22:32:52.571Z,11.51
2023-04-26T22:35:20.903Z,11.39
2023-04-26T22:37:48.874Z,11.52
2023-04-26T22:40:17.573Z,11.49
2023-04-26T22:42:46.856Z,11.47
2023-04-26T22:45:14.622Z,11.43
2023-04-26T22:47:42.578Z,11.43
2023-04-26T22:50:11.554Z,11.32
2023-04-26T22:52:39.344Z,11.38
2023-04-26T22:55:08.145Z,11.43
2023-04-26T22:57:36.606Z,11.40
2023-04-26T23:00:09.526Z,11.25
2023-04-26T23:02:37.494Z,11.16
2023-04-26T23:05:08.814Z,11.35
2023-04-26T23:07:36.704Z,11.30
2023-04-26T23:10:05.068Z,11.25
2023-04-26T23:12:33.384Z,11.21
2023-04-26T23:15:01.451Z,11.21
2023-04-26T23:17:32.081Z,11.12
2023-04-26T23:20:00.959Z,11.17
2023-04-26T23:22:28.874Z,11.14
2023-04-26T23:24:56.677Z,11.08
2023-04-26T23:27:24.849Z,11.00
2023-04-26T23:29:52.643Z,10.96
2023-04-26T23:32:20.374Z,10.85
2023-04-26T23:34:50.618Z,10.78
2023-04-26T23:37:18.487Z,10.81
2023-04-26T23:39:46.266Z,10.79
2023-04-26T23:42:14.021Z,10.77
2023-04-26T23:44:42.005Z,10.74
2023-04-26T23:47:10.352Z,10.73
2023-04-26T23:49:38.082Z,10.73
2023-04-26T23:52:07.326Z,10.63
2023-04-26T23:54:35.136Z,10.57
2023-04-26T23:57:04.124Z,10.49
2023-04-26T23:59:32.225Z,10.44
